Time;durP1;ratioP1;P1;durP2;ratioP2;P2;SDS_P1;SDS_P2;PMS_P1;PMS_P2;Temp;Humidity;BMP_temperature;BMP_pressure;BME280_temperature;BME280_humidity;BME280_pressure;Samples;Min_cycle;Max_cycle;Signal;HPM_P1;HPM_P2
2022/09/25 05:04:14;;;;;;;7.25;4.65;;;12.60;99.90;;;;;;10750905;23;20046;-76
2022/09/25 05:09:17;;;;;;;6.57;4.75;;;12.60;99.90;;;;;;10335638;28;20511;-73
2022/09/25 05:14:19;;;;;;;6.93;4.85;;;12.60;99.90;;;;;;10328911;28;20061;-75
2022/09/25 05:19:22;;;;;;;7.53;5.30;;;12.60;99.90;;;;;;10332047;28;20481;-76
2022/09/25 05:24:24;;;;;;;7.45;5.72;;;12.60;99.90;;;;;;10330882;28;20060;-75
2022/09/25 05:29:26;;;;;;;7.82;5.85;;;12.40;99.90;;;;;;10333759;28;20057;-76
2022/09/25 05:34:30;;;;;;;10.38;6.50;;;12.30;99.90;;;;;;10333402;28;20050;-75
2022/09/25 05:39:32;;;;;;;8.18;6.10;;;12.40;99.90;;;;;;10332993;28;20057;-74
2022/09/25 05:44:34;;;;;;;11.13;6.95;;;12.40;99.90;;;;;;10330427;28;20058;-73
2022/09/25 05:49:37;;;;;;;9.82;7.68;;;12.50;99.90;;;;;;10334117;28;20053;-76
2022/09/25 05:54:39;;;;;;;12.35;8.73;;;12.50;99.90;;;;;;10335394;28;20058;-76
2022/09/25 05:59:41;;;;;;;11.23;7.93;;;12.50;99.90;;;;;;10329461;28;20050;-75
2022/09/25 06:04:45;;;;;;;11.77;8.43;;;12.50;99.90;;;;;;10333117;28;20042;-74
2022/09/25 06:09:47;;;;;;;11.40;8.20;;;12.50;99.90;;;;;;10335544;28;20400;-75
2022/09/25 06:14:51;;;;;;;11.60;7.32;;;12.50;99.90;;;;;;10339490;28;21472;-74
2022/09/25 06:19:54;;;;;;;9.63;6.88;;;12.60;99.90;;;;;;10344729;28;20042;-78
2022/09/25 06:24:56;;;;;;;9.90;6.63;;;12.70;99.90;;;;;;10335944;28;20046;-74
2022/09/25 06:29:58;;;;;;;9.45;6.82;;;12.70;99.90;;;;;;10330732;28;20045;-74
2022/09/25 06:35:03;;;;;;;8.80;6.90;;;12.70;99.90;;;;;;10330532;28;20110;-75
2022/09/25 06:40:07;;;;;;;10.43;6.70;;;12.70;99.90;;;;;;10330421;28;20058;-74
2022/09/25 06:45:10;;;;;;;8.90;6.68;;;12.80;99.90;;;;;;10327429;28;20097;-75
2022/09/25 06:50:14;;;;;;;8.80;6.45;;;12.90;99.90;;;;;;10333331;28;20070;-78
2022/09/25 06:55:17;;;;;;;8.63;6.00;;;13.00;99.90;;;;;;10337527;28;20472;-74
2022/09/25 07:00:19;;;;;;;8.52;6.10;;;13.10;99.90;;;;;;10330735;28;20050;-76
2022/09/25 07:05:22;;;;;;;9.25;5.93;;;13.10;99.90;;;;;;10327433;28;20054;-75
2022/09/25 07:10:25;;;;;;;10.43;6.43;;;13.30;99.90;;;;;;10334446;28;20057;-73
2022/09/25 07:15:27;;;;;;;11.23;6.93;;;13.30;99.90;;;;;;10336908;28;20046;-75
2022/09/25 07:20:31;;;;;;;9.38;6.80;;;13.20;99.90;;;;;;10341101;28;20061;-75
2022/09/25 07:25:34;;;;;;;8.75;6.47;;;13.20;99.90;;;;;;10338522;28;20474;-76
2022/09/25 07:30:36;;;;;;;9.65;6.45;;;13.30;99.90;;;;;;10338545;28;20056;-76
2022/09/25 07:35:40;;;;;;;10.88;6.55;;;13.30;99.90;;;;;;10339711;28;20057;-76
2022/09/25 07:40:43;;;;;;;8.85;5.95;;;13.40;99.90;;;;;;10338507;28;20082;-74
2022/09/25 07:45:52;;;;;;;8.93;6.13;;;13.40;99.90;;;;;;10338259;28;20062;-74
2022/09/25 07:50:59;;;;;;;8.25;6.15;;;13.50;99.90;;;;;;10336737;28;20057;-75
2022/09/25 07:56:02;;;;;;;7.70;5.82;;;13.50;99.90;;;;;;10332122;28;20053;-74
2022/09/25 08:01:07;;;;;;;11.18;6.68;;;13.60;99.90;;;;;;10332898;28;20492;-74
2022/09/25 08:06:12;;;;;;;9.70;6.22;;;13.70;99.90;;;;;;10330447;28;20039;-77
2022/09/25 08:11:17;;;;;;;8.60;5.90;;;13.60;99.90;;;;;;10332172;28;20054;-76
2022/09/25 08:16:21;;;;;;;8.43;6.53;;;13.70;99.90;;;;;;10329173;28;20496;-74
2022/09/25 08:21:24;;;;;;;10.18;5.85;;;13.80;99.90;;;;;;10332801;28;20550;-73
2022/09/25 08:26:27;;;;;;;9.15;6.43;;;13.90;99.90;;;;;;10332488;28;20046;-76
2022/09/25 08:31:30;;;;;;;8.40;6.20;;;13.90;99.90;;;;;;10331223;28;20104;-74
2022/09/25 08:36:33;;;;;;;10.60;7.22;;;14.00;99.90;;;;;;10329577;28;20062;-77
2022/09/25 08:41:46;;;;;;;9.27;7.25;;;14.00;99.90;;;;;;10318944;28;20050;-75
2022/09/25 08:52:20;;;;;;;10.63;8.02;;;14.20;99.90;;;;;;10330374;28;20054;-76
2022/09/25 08:57:30;;;;;;;11.20;8.30;;;14.20;99.90;;;;;;10330159;28;20129;-78
2022/09/25 09:02:41;;;;;;;12.63;8.07;;;14.20;99.90;;;;;;10325863;28;20058;-77
2022/09/25 09:07:50;;;;;;;12.57;8.80;;;14.30;99.90;;;;;;10328816;28;20053;-75
2022/09/25 09:12:58;;;;;;;11.45;8.55;;;14.30;99.90;;;;;;10329724;28;20054;-77
2022/09/25 09:18:15;;;;;;;12.10;8.33;;;14.50;99.90;;;;;;10315026;28;20050;-75
2022/09/25 09:23:21;;;;;;;10.40;8.10;;;14.50;99.90;;;;;;10330199;28;20073;-77
2022/09/25 09:29:25;;;;;;;10.75;7.38;;;14.60;99.90;;;;;;10328057;28;20050;-77
2022/09/25 09:34:57;;;;;;;10.77;7.50;;;14.70;99.90;;;;;;10247916;28;20051;-77
2022/09/25 09:40:19;;;;;;;10.13;7.40;;;14.80;99.90;;;;;;10326482;28;20070;-76
2022/09/25 09:45:32;;;;;;;8.40;6.13;;;15.00;99.90;;;;;;10327706;28;20050;-74
2022/09/25 09:50:43;;;;;;;8.30;6.30;;;15.20;99.90;;;;;;10327106;28;20408;-77
2022/09/25 09:55:51;;;;;;;9.13;6.30;;;15.40;99.90;;;;;;10329943;28;20083;-77
2022/09/25 10:00:53;;;;;;;9.98;6.68;;;15.50;99.90;;;;;;10327183;28;20058;-78
2022/09/25 10:05:59;;;;;;;8.95;6.40;;;15.70;99.90;;;;;;10325908;28;20447;-75
2022/09/25 10:11:12;;;;;;;6.55;3.67;;;15.60;99.90;;;;;;10326410;28;20050;-76
2022/09/25 10:16:17;;;;;;;7.38;5.10;;;15.60;99.90;;;;;;10326351;28;20053;-75
2022/09/25 10:21:22;;;;;;;6.82;4.57;;;15.70;99.90;;;;;;10325073;28;20396;-77
2022/09/25 10:26:32;;;;;;;8.18;5.68;;;15.80;99.90;;;;;;10328083;28;20050;-75
2022/09/25 10:31:38;;;;;;;7.05;4.63;;;15.80;99.90;;;;;;10329023;28;20057;-75
2022/09/25 10:36:42;;;;;;;8.07;5.25;;;15.70;99.90;;;;;;10329743;28;20054;-76
2022/09/25 10:41:46;;;;;;;7.05;5.00;;;15.80;99.90;;;;;;10332381;28;20051;-76
2022/09/25 10:52:10;;;;;;;18.70;11.48;;;16.00;99.90;;;;;;10326559;28;20118;-78
2022/09/25 10:57:27;;;;;;;9.40;6.50;;;16.00;99.90;;;;;;10352389;28;20046;-75
2022/09/25 11:02:36;;;;;;;7.93;4.87;;;16.00;99.90;;;;;;10339365;28;20058;-76
2022/09/25 11:07:38;;;;;;;7.78;4.60;;;16.00;99.90;;;;;;10332287;28;20502;-75
2022/09/25 11:12:45;;;;;;;7.28;4.53;;;16.10;99.90;;;;;;10345378;28;20484;-77
2022/09/25 11:17:50;;;;;;;7.63;4.95;;;16.00;99.90;;;;;;10345494;28;20043;-78
2022/09/25 11:23:05;;;;;;;6.72;4.90;;;15.90;99.90;;;;;;10300942;28;20131;-77
2022/09/25 11:28:20;;;;;;;9.02;4.88;;;16.00;99.90;;;;;;10300052;28;20061;-78
2022/09/25 11:33:34;;;;;;;9.32;4.82;;;16.00;99.90;;;;;;10300038;28;20053;-74
2022/09/25 11:44:21;;;;;;;8.00;5.35;;;16.40;99.90;;;;;;10300102;28;20420;-77
2022/09/25 11:49:27;;;;;;;10.45;5.78;;;16.50;99.90;;;;;;10300102;28;20042;-76
2022/09/25 11:54:41;;;;;;;10.48;5.75;;;16.50;99.90;;;;;;10301008;28;20074;-78
2022/09/25 12:00:00;;;;;;;10.98;5.57;;;16.50;99.90;;;;;;10298202;28;20049;-76
2022/09/25 12:05:26;;;;;;;10.20;5.60;;;16.50;99.90;;;;;;10298881;28;20066;-76
2022/09/25 12:10:41;;;;;;;8.90;5.85;;;16.50;99.90;;;;;;10299412;28;20043;-78
2022/09/25 12:16:00;;;;;;;8.43;5.30;;;16.50;99.90;;;;;;10331177;28;20104;-79
2022/09/25 12:21:07;;;;;;;8.07;5.45;;;16.40;99.90;;;;;;10345628;28;20057;-79
2022/09/25 12:26:22;;;;;;;8.95;5.90;;;16.30;99.90;;;;;;10351006;28;20042;-77
2022/09/25 12:31:40;;;;;;;8.57;5.57;;;16.00;99.90;;;;;;10348801;28;20054;-78
2022/09/25 12:36:48;;;;;;;;;;;16.10;99.90;;;;;;10333534;28;20046;-75
2022/09/25 12:41:56;;;;;;;9.00;5.72;;;16.10;99.90;;;;;;10332794;28;19921;-76
2022/09/25 12:47:07;;;;;;;8.32;5.22;;;16.20;99.90;;;;;;10331947;28;20054;-77
2022/09/25 12:52:15;;;;;;;9.35;5.40;;;16.20;99.90;;;;;;10333067;28;20049;-76
2022/09/25 12:57:25;;;;;;;9.57;5.20;;;16.40;99.90;;;;;;10328713;28;20086;-74
2022/09/25 13:02:34;;;;;;;7.78;5.15;;;16.50;99.90;;;;;;10329149;28;20463;-74
2022/09/25 13:07:43;;;;;;;11.18;7.45;;;16.50;99.90;;;;;;10328525;28;20050;-74
2022/09/25 13:12:46;;;;;;;12.13;8.15;;;16.50;99.90;;;;;;10328630;28;20086;-74
2022/09/25 13:17:50;;;;;;;11.82;8.43;;;16.30;99.90;;;;;;10329841;28;20057;-76
2022/09/25 13:22:57;;;;;;;12.27;8.73;;;16.20;99.90;;;;;;10330904;28;20054;-74
2022/09/25 13:28:07;;;;;;;14.50;9.10;;;16.10;99.90;;;;;;10328651;28;20054;-76
2022/09/25 13:33:21;;;;;;;12.13;9.30;;;15.90;99.90;;;;;;10335409;28;20051;-76
2022/09/25 13:43:39;;;;;;;13.30;9.65;;;15.00;99.90;;;;;;10335043;28;20061;-78
2022/09/25 13:48:43;;;;;;;52.42;29.88;;;14.80;99.90;;;;;;10354202;28;20142;-74
2022/09/25 13:53:57;;;;;;;13.95;9.02;;;14.80;99.90;;;;;;10340785;28;20049;-76
2022/09/25 13:59:20;;;;;;;9.40;6.45;;;14.80;99.90;;;;;;10328638;28;20058;-79
2022/09/25 14:04:35;;;;;;;8.80;6.40;;;14.90;99.90;;;;;;10327826;28;20066;-76
2022/09/25 14:09:44;;;;;;;8.20;5.88;;;15.60;99.90;;;;;;10327842;28;20456;-77
2022/09/25 14:14:54;;;;;;;7.22;5.80;;;16.40;99.90;;;;;;10325566;28;20407;-77
2022/09/25 14:20:00;;;;;;;7.28;5.68;;;17.10;99.90;;;;;;10325379;28;20046;-75
2022/09/25 14:25:02;;;;;;;7.93;5.43;;;18.80;99.90;;;;;;10330064;28;20074;-75
2022/09/25 14:30:10;;;;;;;7.60;5.88;;;20.90;99.90;;;;;;10327855;28;20058;-76
2022/09/25 14:35:43;;;;;;;12.32;6.78;;;24.40;94.10;;;;;;10329063;28;20073;-77
2022/09/25 14:41:04;;;;;;;9.85;7.28;;;22.90;94.30;;;;;;10332308;28;20051;-75
2022/09/25 14:46:09;;;;;;;7.43;6.25;;;21.10;94.20;;;;;;10329249;28;20082;-76
2022/09/25 14:51:23;;;;;;;11.68;6.57;;;20.60;97.10;;;;;;10327663;28;20073;-75
2022/09/25 14:56:26;;;;;;;14.90;7.60;;;20.80;97.70;;;;;;10328147;28;20416;-76
2022/09/25 15:01:31;;;;;;;12.02;8.25;;;20.90;96.00;;;;;;10331372;28;20061;-76
2022/09/25 15:06:37;;;;;;;12.35;9.52;;;19.60;97.30;;;;;;10331242;28;20054;-78
2022/09/25 15:11:43;;;;;;;14.95;10.30;;;18.60;99.30;;;;;;10327804;28;20046;-77
2022/09/25 15:22:22;;;;;;;12.65;10.18;;;18.10;99.90;;;;;;10277787;28;20061;-76
2022/09/25 15:27:26;;;;;;;13.10;9.43;;;17.90;99.90;;;;;;10345348;28;20396;-78
2022/09/25 15:32:37;;;;;;;15.98;11.90;;;17.70;99.90;;;;;;10353707;28;20054;-77
2022/09/25 15:37:40;;;;;;;15.65;10.55;;;17.70;99.90;;;;;;10347710;28;20054;-76
2022/09/25 15:42:46;;;;;;;13.35;10.52;;;17.80;99.90;;;;;;10344188;28;20054;-76
2022/09/25 15:47:53;;;;;;;14.85;11.20;;;17.90;99.90;;;;;;10342939;28;20141;-77
2022/09/25 15:52:59;;;;;;;13.27;10.52;;;18.00;99.90;;;;;;10341266;28;20515;-78
2022/09/25 15:58:10;;;;;;;13.75;10.63;;;17.90;99.90;;;;;;10337252;28;20054;-79
2022/09/25 16:08:39;;;;;;;13.10;10.15;;;17.70;99.90;;;;;;10339596;28;20057;-77
2022/09/25 16:13:45;;;;;;;15.98;11.95;;;17.60;99.90;;;;;;10331946;28;20042;-74
2022/09/25 16:18:47;;;;;;;25.27;17.60;;;17.40;99.90;;;;;;10337804;28;20070;-75
2022/09/25 16:23:58;;;;;;;15.93;11.40;;;17.10;99.90;;;;;;10339018;28;20053;-75
2022/09/25 16:29:07;;;;;;;13.15;9.60;;;17.00;99.90;;;;;;10337214;28;20046;-74
2022/09/25 16:34:19;;;;;;;10.77;8.70;;;16.80;99.90;;;;;;10339571;28;20066;-73
2022/09/25 16:39:32;;;;;;;10.98;6.90;;;16.70;99.90;;;;;;10334281;28;20046;-76
2022/09/25 16:44:45;;;;;;;12.70;7.68;;;16.50;99.90;;;;;;10336810;28;20506;-77
2022/09/25 16:49:48;;;;;;;11.60;7.43;;;16.40;99.90;;;;;;10334630;28;20081;-77
2022/09/25 16:54:56;;;;;;;10.75;7.45;;;16.30;99.90;;;;;;10330993;28;20050;-78
2022/09/25 16:59:58;;;;;;;11.38;7.55;;;16.30;99.90;;;;;;10327609;28;20407;-74
2022/09/25 17:05:03;;;;;;;13.77;8.07;;;16.10;99.90;;;;;;10330269;28;20054;-76
2022/09/25 17:10:14;;;;;;;12.43;7.72;;;15.90;99.90;;;;;;10329474;28;20058;-77
2022/09/25 17:15:20;;;;;;;10.50;7.55;;;15.90;99.90;;;;;;10321330;28;20050;-78
2022/09/25 17:20:24;;;;;;;12.40;7.95;;;15.70;99.90;;;;;;10328739;28;20054;-77
